createdAt,value
2023-02-27T00:01:39.896Z,-1.05
2023-02-27T00:04:28.525Z,-1.06
2023-02-27T00:07:17.665Z,-0.97
2023-02-27T00:10:07.894Z,-0.95
2023-02-27T00:12:56.153Z,-0.95
2023-02-27T00:15:47.574Z,-0.94
2023-02-27T00:18:35.868Z,-0.93
2023-02-27T00:21:24.030Z,-0.92
2023-02-27T00:24:12.175Z,-0.94
2023-02-27T00:27:00.177Z,-0.98
2023-02-27T00:29:47.944Z,-0.97
2023-02-27T00:32:36.859Z,-0.96
2023-02-27T00:35:25.822Z,-0.94
2023-02-27T00:38:13.546Z,-0.90
2023-02-27T00:41:01.462Z,-0.85
2023-02-27T00:43:49.505Z,-0.79
2023-02-27T00:46:38.967Z,-0.74
2023-02-27T00:49:27.041Z,-0.73
2023-02-27T00:52:14.717Z,-0.74
2023-02-27T00:55:02.624Z,-0.76
2023-02-27T00:57:50.457Z,-0.77
2023-02-27T01:00:38.703Z,-0.79
2023-02-27T01:03:26.651Z,-0.82
2023-02-27T01:06:14.873Z,-0.80
2023-02-27T01:09:04.240Z,-0.77
2023-02-27T01:11:52.445Z,-0.74
2023-02-27T01:14:40.214Z,-0.70
2023-02-27T01:17:28.376Z,-0.64
2023-02-27T01:20:17.995Z,-0.59
2023-02-27T01:23:06.354Z,-0.57
2023-02-27T01:25:54.277Z,-0.58
2023-02-27T01:28:42.438Z,-0.59
2023-02-27T01:31:30.178Z,-0.58
2023-02-27T01:34:18.497Z,-0.58
2023-02-27T01:37:06.446Z,-0.58
2023-02-27T01:39:53.998Z,-0.60
2023-02-27T01:42:42.439Z,-0.61
2023-02-27T01:45:34.003Z,-0.59
2023-02-27T01:48:32.002Z,-0.57
2023-02-27T01:51:22.102Z,-0.56
2023-02-27T01:54:12.491Z,-0.56
2023-02-27T01:57:03.181Z,-0.59
2023-02-27T01:59:50.882Z,-0.63
2023-02-27T02:02:42.743Z,-0.71
2023-02-27T02:05:31.269Z,-0.79
2023-02-27T02:08:22.080Z,-0.82
2023-02-27T02:11:10.629Z,-0.83
2023-02-27T02:14:02.804Z,-0.83
2023-02-27T02:17:04.607Z,-0.82
2023-02-27T02:20:29.787Z,-0.82
2023-02-27T02:24:09.460Z,-0.83
2023-02-27T02:27:46.943Z,-0.84
2023-02-27T02:30:56.630Z,-0.87
2023-02-27T02:33:56.444Z,-0.86
2023-02-27T02:37:34.181Z,-0.84
2023-02-27T02:40:46.569Z,-0.83
2023-02-27T02:43:53.741Z,-0.85
2023-02-27T02:47:04.338Z,-0.86
2023-02-27T02:50:25.642Z,-0.96
2023-02-27T02:53:36.112Z,-0.92
2023-02-27T02:57:09.162Z,-0.92
2023-02-27T03:00:21.244Z,-0.93
2023-02-27T03:03:22.865Z,-0.95
2023-02-27T03:06:19.542Z,-1.00
2023-02-27T03:09:31.988Z,-1.01
2023-02-27T03:12:23.983Z,-0.98
2023-02-27T03:15:18.031Z,-0.97
2023-02-27T03:18:28.792Z,-0.95
2023-02-27T03:21:41.292Z,-0.92
2023-02-27T03:24:49.436Z,-0.92
2023-02-27T03:27:47.793Z,-0.90
2023-02-27T03:30:50.615Z,-0.86
2023-02-27T03:33:48.499Z,-0.84
2023-02-27T03:37:00.538Z,-0.83
2023-02-27T03:39:55.408Z,-0.84
2023-02-27T03:43:12.568Z,-0.84
2023-02-27T03:46:22.622Z,-0.85
2023-02-27T03:49:12.096Z,-0.83
2023-02-27T03:52:00.069Z,-0.84
2023-02-27T03:54:57.315Z,-0.83
2023-02-27T03:57:48.227Z,-0.81
2023-02-27T04:00:36.521Z,-0.78
2023-02-27T04:03:24.764Z,-0.75
2023-02-27T04:06:31.758Z,-0.72
2023-02-27T04:09:38.499Z,-0.72
2023-02-27T04:12:45.585Z,-0.72
2023-02-27T04:15:55.180Z,-0.71
2023-02-27T04:19:13.983Z,-0.71
2023-02-27T04:22:29.013Z,-0.72
2023-02-27T04:25:49.827Z,-0.65
2023-02-27T04:28:42.089Z,-0.62
2023-02-27T04:31:42.047Z,-0.58
2023-02-27T04:34:40.582Z,-0.56
2023-02-27T04:37:37.745Z,-0.53
2023-02-27T04:40:42.108Z,-0.51
2023-02-27T04:43:32.844Z,-0.49
2023-02-27T04:46:27.181Z,-0.49
2023-02-27T04:49:36.624Z,-0.48
2023-02-27T04:52:38.405Z,-0.49
2023-02-27T04:55:33.233Z,-0.49
2023-02-27T04:58:32.360Z,-0.48
2023-02-27T05:01:31.581Z,-0.47
2023-02-27T05:04:23.068Z,-0.43
2023-02-27T05:07:19.109Z,-0.42
2023-02-27T05:10:34.829Z,-0.40
2023-02-27T05:13:38.012Z,-0.40
2023-02-27T05:16:41.878Z,-0.42
2023-02-27T05:19:32.784Z,-0.44
2023-02-27T05:22:29.638Z,-0.48
2023-02-27T05:25:37.272Z,-0.51
2023-02-27T05:29:16.530Z,-0.52
2023-02-27T05:32:42.202Z,-0.52
2023-02-27T05:35:38.433Z,-0.54
2023-02-27T05:38:30.568Z,-0.57
2023-02-27T05:41:25.227Z,-0.56
2023-02-27T05:44:16.240Z,-0.53
2023-02-27T05:47:17.401Z,-0.50
2023-02-27T05:50:18.012Z,-0.51
2023-02-27T05:53:15.451Z,-0.46
2023-02-27T05:56:06.653Z,-0.51
2023-02-27T05:59:04.125Z,-0.46
2023-02-27T06:01:52.310Z,-0.40
2023-02-27T06:04:41.790Z,-0.38
2023-02-27T06:07:33.051Z,-0.35
2023-02-27T06:10:22.349Z,-0.31
2023-02-27T06:13:10.592Z,-0.26
2023-02-27T06:15:58.390Z,-0.21
2023-02-27T06:18:46.401Z,-0.16
2023-02-27T06:21:34.288Z,-0.12
2023-02-27T06:24:22.290Z,-0.08
2023-02-27T06:27:10.103Z,-0.04
2023-02-27T06:29:58.277Z,-0.02
2023-02-27T06:32:46.563Z,0.01
2023-02-27T06:35:34.730Z,0.04
2023-02-27T06:38:22.637Z,0.06
2023-02-27T06:41:10.496Z,0.09
2023-02-27T06:43:58.451Z,0.12
2023-02-27T06:46:46.337Z,0.18
2023-02-27T06:49:34.239Z,0.25
2023-02-27T06:52:21.931Z,0.35
2023-02-27T06:55:10.822Z,0.48
2023-02-27T06:57:58.562Z,0.62
2023-02-27T07:00:46.910Z,0.76
2023-02-27T07:03:34.624Z,0.89
2023-02-27T07:07:30.992Z,1.04
2023-02-27T07:09:30.556Z,1.18
2023-02-27T07:12:18.580Z,1.33
2023-02-27T07:15:10.323Z,1.46
2023-02-27T07:17:58.486Z,1.63
2023-02-27T07:20:50.164Z,1.79
2023-02-27T07:23:38.376Z,1.98
2023-02-27T07:26:26.228Z,2.03
2023-02-27T07:29:17.733Z,2.10
2023-02-27T07:32:05.478Z,2.11
2023-02-27T07:34:53.680Z,2.26
2023-02-27T07:37:41.361Z,2.28
2023-02-27T07:40:29.602Z,2.32
2023-02-27T07:43:17.514Z,2.27
2023-02-27T07:46:05.855Z,2.20
2023-02-27T07:48:54.821Z,2.13
2023-02-27T07:51:42.642Z,2.10
2023-02-27T07:54:30.793Z,2.13
2023-02-27T07:57:18.769Z,2.11
2023-02-27T08:00:07.619Z,2.13
2023-02-27T08:03:00.602Z,2.12
2023-02-27T08:05:48.897Z,2.14
2023-02-27T08:08:37.046Z,2.16
2023-02-27T08:11:25.117Z,2.19
2023-02-27T08:14:12.986Z,2.20
2023-02-27T08:17:01.326Z,2.23
2023-02-27T08:19:49.050Z,2.25
2023-02-27T08:22:37.070Z,2.28
2023-02-27T08:25:25.114Z,2.26
2023-02-27T08:28:12.822Z,2.30
2023-02-27T08:31:01.758Z,2.38
2023-02-27T08:33:58.020Z,2.47
2023-02-27T08:36:55.855Z,2.58
2023-02-27T08:39:44.053Z,2.65
2023-02-27T08:42:31.900Z,2.73
2023-02-27T08:45:19.909Z,2.83
2023-02-27T08:48:08.590Z,2.94
2023-02-27T08:50:57.849Z,3.10
2023-02-27T08:53:45.617Z,3.36
2023-02-27T08:56:34.960Z,3.65
2023-02-27T08:59:22.749Z,3.88
2023-02-27T09:02:11.692Z,4.12
2023-02-27T09:04:59.831Z,4.24
2023-02-27T09:07:47.833Z,4.30
2023-02-27T09:10:36.192Z,4.37
2023-02-27T09:13:24.390Z,4.48
2023-02-27T09:16:13.681Z,4.58
2023-02-27T09:19:01.421Z,4.77
2023-02-27T09:21:49.461Z,4.83
2023-02-27T09:24:37.265Z,4.87
2023-02-27T09:27:26.109Z,4.79
2023-02-27T09:30:14.368Z,4.67
2023-02-27T09:33:02.140Z,4.54
2023-02-27T09:35:50.149Z,4.44
2023-02-27T09:38:41.332Z,4.31
2023-02-27T09:41:53.842Z,4.23
2023-02-27T09:44:47.674Z,4.26
2023-02-27T09:47:50.905Z,4.36
2023-02-27T09:50:48.806Z,4.46
2023-02-27T09:53:59.995Z,4.50
2023-02-27T09:57:12.909Z,4.49
2023-02-27T10:00:07.397Z,4.58
2023-02-27T10:03:29.562Z,4.72
2023-02-27T10:06:44.176Z,4.84
2023-02-27T10:09:48.488Z,5.01
2023-02-27T10:13:00.609Z,5.28
2023-02-27T10:15:52.277Z,6.40
2023-02-27T10:19:14.295Z,6.58
2023-02-27T10:22:07.966Z,6.78
2023-02-27T10:25:30.820Z,7.02
2023-02-27T10:28:22.473Z,7.64
2023-02-27T10:31:21.441Z,8.19
2023-02-27T10:34:16.429Z,9.37
2023-02-27T10:37:06.539Z,10.57
2023-02-27T10:40:00.044Z,11.19
2023-02-27T10:42:49.737Z,11.41
2023-02-27T10:45:38.943Z,11.67
2023-02-27T10:48:27.211Z,11.74
2023-02-27T10:51:32.229Z,13.34
2023-02-27T10:54:21.933Z,15.21
2023-02-27T10:57:33.777Z,14.62
2023-02-27T11:00:45.402Z,13.72
2023-02-27T11:03:41.119Z,12.78
2023-02-27T11:06:29.922Z,12.08
2023-02-27T11:09:23.923Z,11.76
2023-02-27T11:12:28.237Z,11.37
2023-02-27T11:15:16.144Z,11.53
2023-02-27T11:18:21.833Z,11.78
2023-02-27T11:21:30.339Z,11.05
2023-02-27T11:24:20.720Z,10.14
2023-02-27T11:27:32.354Z,9.46
2023-02-27T11:30:29.444Z,9.04
2023-02-27T11:33:20.978Z,10.01
2023-02-27T11:36:09.621Z,11.75
2023-02-27T11:38:57.673Z,12.70
2023-02-27T11:41:45.423Z,12.28
2023-02-27T11:44:49.739Z,12.07
2023-02-27T11:47:41.491Z,12.18
2023-02-27T11:51:10.742Z,13.11
2023-02-27T11:54:30.074Z,12.79
2023-02-27T11:57:30.147Z,11.89
2023-02-27T12:00:21.077Z,11.62
2023-02-27T12:03:24.886Z,12.57
2023-02-27T12:06:40.789Z,13.20
2023-02-27T12:10:02.344Z,12.48
2023-02-27T12:14:24.198Z,11.47
2023-02-27T12:17:56.109Z,10.58
2023-02-27T12:21:15.676Z,9.51
2023-02-27T12:24:38.936Z,8.67
2023-02-27T12:28:33.482Z,8.01
2023-02-27T12:31:41.124Z,8.90
2023-02-27T12:35:13.151Z,10.09
2023-02-27T12:38:02.755Z,10.78
2023-02-27T12:41:36.765Z,10.21
2023-02-27T12:44:49.867Z,9.22
2023-02-27T12:47:54.803Z,8.39
2023-02-27T12:51:06.762Z,7.70
2023-02-27T12:54:08.582Z,7.06
2023-02-27T12:57:13.540Z,6.66
2023-02-27T13:00:20.993Z,6.53
2023-02-27T13:03:18.035Z,6.89
2023-02-27T13:06:14.364Z,7.27
2023-02-27T13:09:17.447Z,7.35
2023-02-27T13:12:05.232Z,7.19
2023-02-27T13:15:06.100Z,7.10
2023-02-27T13:18:09.553Z,7.07
2023-02-27T13:21:21.687Z,7.04
2023-02-27T13:24:18.910Z,6.72
2023-02-27T13:27:33.282Z,6.24
2023-02-27T13:30:46.941Z,5.66
2023-02-27T13:33:51.213Z,5.22
2023-02-27T13:36:52.071Z,4.92
2023-02-27T13:39:50.108Z,4.64
2023-02-27T13:42:51.792Z,4.53
2023-02-27T13:45:47.154Z,4.53
2023-02-27T13:48:42.576Z,4.60
2023-02-27T13:51:36.343Z,4.65
2023-02-27T13:54:48.320Z,4.65
2023-02-27T13:57:37.358Z,4.43
2023-02-27T14:00:29.670Z,4.14
2023-02-27T14:03:30.497Z,3.82
2023-02-27T14:06:18.830Z,3.55
2023-02-27T14:09:15.258Z,3.37
2023-02-27T14:12:07.232Z,3.29
2023-02-27T14:14:55.873Z,3.24
2023-02-27T14:17:46.524Z,3.24
2023-02-27T14:20:34.329Z,3.24
2023-02-27T14:23:27.161Z,3.11
2023-02-27T14:26:21.229Z,3.01
2023-02-27T14:29:18.752Z,3.00
2023-02-27T14:32:25.116Z,2.96
2023-02-27T14:35:16.369Z,2.93
2023-02-27T14:38:12.078Z,2.90
2023-02-27T14:41:12.850Z,2.91
2023-02-27T14:44:00.759Z,2.82
2023-02-27T14:46:49.668Z,2.71
2023-02-27T14:49:38.374Z,2.59
2023-02-27T14:52:30.760Z,2.49
2023-02-27T14:55:28.011Z,2.39
2023-02-27T14:58:20.055Z,2.26
2023-02-27T15:01:10.216Z,2.18
2023-02-27T15:03:59.214Z,2.14
2023-02-27T15:06:51.690Z,2.06
2023-02-27T15:09:44.884Z,2.00
2023-02-27T15:12:38.283Z,1.95
2023-02-27T15:15:26.129Z,1.90
2023-02-27T15:18:15.457Z,1.86
2023-02-27T15:21:03.551Z,1.80
2023-02-27T15:24:04.034Z,1.73
2023-02-27T15:27:16.382Z,1.64
2023-02-27T15:30:04.953Z,1.53
2023-02-27T15:32:55.680Z,1.43
2023-02-27T15:35:46.357Z,1.32
2023-02-27T15:38:38.139Z,1.27
2023-02-27T15:41:26.291Z,1.22
2023-02-27T15:44:16.567Z,1.17
2023-02-27T15:47:05.022Z,1.07
2023-02-27T15:50:26.645Z,0.96
2023-02-27T15:53:34.291Z,0.82
2023-02-27T15:56:31.781Z,0.70
2023-02-27T15:59:20.040Z,0.60
2023-02-27T16:02:26.418Z,0.50
2023-02-27T16:05:42.080Z,0.39
2023-02-27T16:08:31.954Z,0.26
2023-02-27T16:11:30.900Z,0.17
2023-02-27T16:14:45.484Z,0.07
2023-02-27T16:17:33.654Z,-0.00
2023-02-27T16:20:54.956Z,-0.07
2023-02-27T16:23:43.642Z,-0.14
2023-02-27T16:26:36.988Z,-0.20
2023-02-27T16:29:44.402Z,-0.23
2023-02-27T16:32:42.627Z,-0.26
2023-02-27T16:35:31.008Z,-0.29
2023-02-27T16:38:19.255Z,-0.30
2023-02-27T16:41:12.118Z,-0.32
2023-02-27T16:44:00.128Z,-0.36
2023-02-27T16:46:48.456Z,-0.40
2023-02-27T16:49:36.664Z,-0.48
2023-02-27T16:52:24.848Z,-0.56
2023-02-27T16:55:12.707Z,-0.64
2023-02-27T16:58:00.326Z,-0.71
2023-02-27T17:00:48.373Z,-0.77
2023-02-27T17:03:36.251Z,-0.82
2023-02-27T17:06:23.975Z,-0.89
2023-02-27T17:09:12.198Z,-0.94
2023-02-27T17:12:00.175Z,-0.99
2023-02-27T17:14:48.123Z,-1.05
2023-02-27T17:17:36.160Z,-1.10
2023-02-27T17:20:26.161Z,-1.17
2023-02-27T17:23:14.559Z,-1.24
2023-02-27T17:26:02.581Z,-1.30
2023-02-27T17:28:50.718Z,-1.38
2023-02-27T17:31:38.756Z,-1.46
2023-02-27T17:34:26.382Z,-1.58
2023-02-27T17:37:14.304Z,-1.62
2023-02-27T17:40:04.742Z,-1.72
2023-02-27T17:42:52.573Z,-1.80
2023-02-27T17:45:40.395Z,-1.88
2023-02-27T17:48:28.234Z,-1.96
2023-02-27T17:51:18.248Z,-2.03
2023-02-27T17:54:07.086Z,-2.06
2023-02-27T17:56:55.093Z,-2.07
2023-02-27T17:59:45.870Z,-2.11
2023-02-27T18:02:33.813Z,-2.15
2023-02-27T18:05:21.496Z,-2.20
2023-02-27T18:08:09.421Z,-2.26
2023-02-27T18:11:00.599Z,-2.33
2023-02-27T18:13:49.341Z,-2.38
2023-02-27T18:16:37.464Z,-2.44
2023-02-27T18:19:27.087Z,-2.48
2023-02-27T18:22:18.196Z,-2.52
2023-02-27T18:25:07.716Z,-2.50
2023-02-27T18:27:56.816Z,-2.53
2023-02-27T18:30:44.985Z,-2.57
2023-02-27T18:33:33.385Z,-2.62
2023-02-27T18:36:21.233Z,-2.67
2023-02-27T18:39:09.419Z,-2.74
2023-02-27T18:41:58.642Z,-2.82
2023-02-27T18:44:47.894Z,-2.88
2023-02-27T18:47:36.411Z,-2.91
2023-02-27T18:50:25.506Z,-2.93
2023-02-27T18:53:13.314Z,-2.95
2023-02-27T18:56:03.492Z,-2.94
2023-02-27T18:58:53.424Z,-2.94
2023-02-27T19:01:41.580Z,-2.95
2023-02-27T19:04:33.535Z,-2.99
2023-02-27T19:07:23.487Z,-3.02
2023-02-27T19:10:11.983Z,-3.08
2023-02-27T19:12:59.831Z,-3.15
2023-02-27T19:15:47.973Z,-3.20
2023-02-27T19:18:36.305Z,-3.23
2023-02-27T19:21:26.855Z,-3.28
2023-02-27T19:24:16.941Z,-3.30
2023-02-27T19:27:05.253Z,-3.33
2023-02-27T19:29:52.985Z,-3.38
2023-02-27T19:32:41.333Z,-3.43
2023-02-27T19:35:29.240Z,-3.47
2023-02-27T19:38:17.658Z,-3.54
2023-02-27T19:41:09.303Z,-3.59
2023-02-27T19:43:57.450Z,-3.65
2023-02-27T19:46:49.223Z,-3.69
2023-02-27T19:49:38.058Z,-3.72
2023-02-27T19:52:27.310Z,-3.76
2023-02-27T19:55:15.911Z,-3.79
2023-02-27T19:58:05.790Z,-3.80
2023-02-27T20:00:54.023Z,-3.79
2023-02-27T20:03:43.779Z,-3.80
2023-02-27T20:06:42.127Z,-3.82
2023-02-27T20:09:30.969Z,-3.86
2023-02-27T20:12:19.282Z,-3.92
2023-02-27T20:15:09.989Z,-3.98
2023-02-27T20:17:58.024Z,-4.01
2023-02-27T20:20:46.975Z,-4.03
2023-02-27T20:23:40.035Z,-4.05
2023-02-27T20:26:31.559Z,-4.07
2023-02-27T20:29:24.296Z,-4.11
2023-02-27T20:32:12.515Z,-4.17
2023-02-27T20:35:00.423Z,-4.18
2023-02-27T20:37:48.675Z,-4.21
2023-02-27T20:40:36.971Z,-4.24
2023-02-27T20:43:25.658Z,-4.28
2023-02-27T20:46:21.757Z,-4.31
2023-02-27T20:49:15.047Z,-4.35
2023-02-27T20:52:04.017Z,-4.41
2023-02-27T20:54:51.738Z,-4.42
2023-02-27T20:57:39.613Z,-4.41
2023-02-27T21:00:28.100Z,-4.40
2023-02-27T21:03:16.041Z,-4.40
2023-02-27T21:06:04.819Z,-4.43
2023-02-27T21:08:57.058Z,-4.47
2023-02-27T21:11:45.132Z,-4.52
2023-02-27T21:14:33.625Z,-4.58
2023-02-27T21:17:23.366Z,-4.65
2023-02-27T21:20:12.276Z,-4.68
2023-02-27T21:23:00.284Z,-4.72
2023-02-27T21:25:48.560Z,-4.75
2023-02-27T21:28:47.737Z,-4.76
2023-02-27T21:31:38.192Z,-4.76
2023-02-27T21:34:28.208Z,-4.75
2023-02-27T21:37:16.312Z,-4.76
2023-02-27T21:40:04.944Z,-4.78
2023-02-27T21:42:53.034Z,-4.79
2023-02-27T21:45:46.307Z,-4.82
2023-02-27T21:48:34.499Z,-4.86
2023-02-27T21:51:38.819Z,-4.93
2023-02-27T21:54:28.077Z,-4.93
2023-02-27T21:57:16.296Z,-4.96
2023-02-27T22:00:07.814Z,-4.97
2023-02-27T22:02:57.079Z,-5.02
2023-02-27T22:05:45.334Z,-5.00
2023-02-27T22:08:33.298Z,-5.02
2023-02-27T22:11:21.457Z,-5.05
2023-02-27T22:14:10.943Z,-5.11
2023-02-27T22:16:58.895Z,-5.18
2023-02-27T22:19:48.007Z,-5.22
2023-02-27T22:22:35.823Z,-5.25
2023-02-27T22:25:24.093Z,-5.29
2023-02-27T22:28:12.165Z,-5.31
2023-02-27T22:31:16.932Z,-5.28
2023-02-27T22:34:08.629Z,-5.27
2023-02-27T22:36:56.909Z,-5.29
2023-02-27T22:39:45.174Z,-5.30
2023-02-27T22:42:33.201Z,-5.30
2023-02-27T22:45:20.879Z,-5.32
2023-02-27T22:48:08.830Z,-5.37
2023-02-27T22:51:03.276Z,-5.45
2023-02-27T22:53:51.854Z,-5.51
2023-02-27T22:56:39.898Z,-5.56
2023-02-27T22:59:28.418Z,-5.58
2023-02-27T23:02:17.404Z,-5.58
2023-02-27T23:05:05.651Z,-5.59
2023-02-27T23:07:53.188Z,-5.58
2023-02-27T23:10:43.304Z,-5.57
2023-02-27T23:13:34.580Z,-5.59
2023-02-27T23:16:22.717Z,-5.59
2023-02-27T23:19:12.146Z,-5.61
2023-02-27T23:21:59.982Z,-5.64
2023-02-27T23:24:47.860Z,-5.65
2023-02-27T23:27:35.512Z,-5.66
2023-02-27T23:30:23.124Z,-5.67
2023-02-27T23:33:12.254Z,-5.68
2023-02-27T23:36:01.515Z,-5.70
2023-02-27T23:38:49.484Z,-5.72
2023-02-27T23:41:37.488Z,-5.70
2023-02-27T23:44:27.027Z,-5.68
2023-02-27T23:47:33.110Z,-5.68
2023-02-27T23:50:25.198Z,-5.67
2023-02-27T23:53:13.796Z,-5.67
2023-02-27T23:56:12.140Z,-5.71
2023-02-27T23:59:06.530Z,-5.74
